Time;durP1;ratioP1;P1;durP2;ratioP2;P2;SDS_P1;SDS_P2;PMS_P1;PMS_P2;Temp;Humidity;BMP_temperature;BMP_pressure;BME280_temperature;BME280_humidity;BME280_pressure;Samples;Min_cycle;Max_cycle;Signal;HPM_P1;HPM_P2
2022/06/14 00:03:04;;;;;;;;;;;12.90;99.90;;;;;;5088390;28;39833;-55
2022/06/14 00:05:32;;;;;;;;;;;12.90;99.90;;;;;;5086985;27;38297;-55
2022/06/14 00:07:59;;;;;;;;;;;12.90;99.90;;;;;;5084965;27;36976;-55
2022/06/14 00:10:26;;;;;;;;;;;13.00;99.90;;;;;;5087238;27;39324;-54
2022/06/14 00:12:53;;;;;;;;;;;13.00;99.90;;;;;;5085848;27;38328;-54
2022/06/14 00:15:22;;;;;;;;;;;13.00;99.90;;;;;;5085379;27;36973;-55
2022/06/14 00:17:49;;;;;;;;;;;13.00;99.90;;;;;;5087414;27;36215;-54
2022/06/14 00:20:16;;;;;;;;;;;13.00;99.90;;;;;;5085787;27;36702;-56
2022/06/14 00:22:43;;;;;;;;;;;13.10;99.90;;;;;;5087218;27;38523;-55
2022/06/14 00:25:18;;;;;;;;;;;13.00;99.90;;;;;;5086430;27;41415;-55
2022/06/14 00:27:45;;;;;;;;;;;13.10;99.90;;;;;;5086617;28;36597;-55
2022/06/14 00:30:12;;;;;;;;;;;13.10;99.90;;;;;;5086819;27;37784;-55
2022/06/14 00:32:41;;;;;;;;;;;13.10;99.90;;;;;;5089173;27;37199;-56
2022/06/14 00:35:08;;;;;;;;;;;13.20;99.90;;;;;;5087359;28;37532;-55
2022/06/14 00:37:35;;;;;;;;;;;13.10;99.90;;;;;;5087358;27;37091;-54
2022/06/14 00:40:03;;;;;;;;;;;13.20;99.90;;;;;;5086453;27;36347;-56
2022/06/14 00:42:30;;;;;;;;;;;13.10;99.90;;;;;;5085575;27;38101;-55
2022/06/14 00:45:04;;;;;;;;;;;13.20;99.90;;;;;;5085841;27;38641;-55
2022/06/14 00:47:34;;;;;;;;;;;13.20;99.90;;;;;;5086643;27;38402;-54
2022/06/14 00:50:05;;;;;;;;;;;13.20;99.90;;;;;;5085722;27;37405;-55
2022/06/14 00:52:33;;;;;;;;;;;13.10;99.90;;;;;;5086296;27;38311;-53
2022/06/14 00:55:03;;;;;;;;;;;13.10;99.90;;;;;;5085149;27;37506;-55
2022/06/14 00:57:33;;;;;;;;;;;13.00;99.90;;;;;;5084623;27;38417;-54
2022/06/14 01:00:02;;;;;;;;;;;13.00;99.90;;;;;;5085866;28;36051;-54
2022/06/14 01:02:31;;;;;;;;;;;13.00;99.90;;;;;;5087021;27;37522;-55
2022/06/14 01:05:00;;;;;;;;;;;12.90;99.90;;;;;;5086343;27;38204;-55
2022/06/14 01:07:30;;;;;;;;;;;12.80;99.90;;;;;;5087446;27;36494;-55
2022/06/14 01:10:01;;;;;;;;;;;12.80;99.90;;;;;;5085044;27;37862;-55
2022/06/14 01:12:30;;;;;;;;;;;12.80;99.90;;;;;;5085434;27;38012;-55
2022/06/14 01:15:01;;;;;;;;;;;12.80;99.90;;;;;;5086456;27;38672;-54
2022/06/14 01:17:28;;;;;;;;;;;12.80;99.90;;;;;;5085978;27;37214;-55
2022/06/14 01:19:55;;;;;;;;;;;12.70;99.90;;;;;;5085951;27;37544;-54
2022/06/14 01:22:28;;;;;;;;;;;12.60;99.90;;;;;;5085854;27;38615;-54
2022/06/14 01:24:55;;;;;;;;;;;12.60;99.90;;;;;;5086030;27;38684;-54
2022/06/14 01:27:24;;;;;;;;;;;12.60;99.90;;;;;;5086290;27;35828;-55
2022/06/14 01:29:55;;;;;;;;;;;12.50;99.90;;;;;;5086216;27;36411;-55
2022/06/14 01:32:22;;;;;;;;;;;12.50;99.90;;;;;;5085393;27;38424;-54
2022/06/14 01:34:51;;;;;;;;;;;12.50;99.90;;;;;;5086321;27;40440;-58
2022/06/14 01:37:18;;;;;;;;;;;12.40;99.90;;;;;;5085726;27;37771;-55
2022/06/14 01:39:46;;;;;;;;;;;12.40;99.90;;;;;;5085546;27;36451;-55
2022/06/14 01:42:22;;;;;;;;;;;12.40;99.90;;;;;;5083277;27;39337;-54
2022/06/14 01:44:52;;;;;;;;;;;12.30;99.90;;;;;;5086273;27;38083;-55
2022/06/14 01:47:22;;;;;;;;;;;12.30;99.90;;;;;;5086390;27;37241;-54
2022/06/14 01:52:48;;;;;;;;;;;12.30;99.90;;;;;;5085853;28;38497;-55
2022/06/14 01:55:20;;;;;;;;;;;12.30;99.90;;;;;;5086995;27;38566;-55
2022/06/14 01:57:49;;;;;;;;;;;12.30;99.90;;;;;;5087065;27;37869;-54
2022/06/14 02:00:20;;;;;;;;;;;12.30;99.90;;;;;;5083198;27;36517;-54
2022/06/14 02:04:36;;;;;;;;;;;12.30;99.90;;;;;;5085087;27;38587;-54
2022/06/14 02:05:42;;;;;;;;;;;12.30;99.90;;;;;;5085235;28;39517;-55
2022/06/14 02:08:13;;;;;;;;;;;12.20;99.90;;;;;;5085534;27;38095;-55
2022/06/14 02:10:43;;;;;;;;;;;12.20;99.90;;;;;;5083122;27;36448;-55
2022/06/14 02:13:12;;;;;;;;;;;12.10;99.90;;;;;;5084794;27;36447;-53
2022/06/14 02:15:41;;;;;;;;;;;12.20;99.90;;;;;;5083850;28;37615;-55
2022/06/14 02:18:10;;;;;;;;;;;12.20;99.90;;;;;;5085129;27;38237;-54
2022/06/14 02:20:40;;;;;;;;;;;12.20;99.90;;;;;;5085280;27;36281;-54
2022/06/14 02:23:08;;;;;;;;;;;12.20;99.90;;;;;;5083569;27;36504;-55
2022/06/14 02:25:38;;;;;;;;;;;12.20;99.90;;;;;;5085877;27;37537;-55
2022/06/14 02:28:08;;;;;;;;;;;12.20;99.90;;;;;;5086425;27;37277;-55
2022/06/14 02:30:38;;;;;;;;;;;12.20;99.90;;;;;;5085480;27;36330;-54
2022/06/14 02:33:07;;;;;;;;;;;12.10;99.90;;;;;;5084990;27;38885;-54
2022/06/14 02:35:37;;;;;;;;;;;12.20;99.90;;;;;;5084548;27;38690;-55
2022/06/14 02:38:09;;;;;;;;;;;12.20;99.90;;;;;;5084102;28;37665;-54
2022/06/14 02:40:38;;;;;;;;;;;12.10;99.90;;;;;;5084723;27;36132;-55
2022/06/14 02:43:10;;;;;;;;;;;12.10;99.90;;;;;;5084723;27;38957;-55
2022/06/14 02:45:41;;;;;;;;;;;12.10;99.90;;;;;;5083531;27;38001;-53
2022/06/14 02:48:11;;;;;;;;;;;12.20;99.90;;;;;;5084128;27;37465;-55
2022/06/14 02:50:42;;;;;;;;;;;12.10;99.90;;;;;;5085265;27;36777;-58
2022/06/14 02:53:10;;;;;;;;;;;12.20;99.90;;;;;;5082655;28;37521;-54
2022/06/14 02:55:43;;;;;;;;;;;12.10;99.90;;;;;;5085931;27;38597;-55
2022/06/14 02:58:14;;;;;;;;;;;12.10;99.90;;;;;;5086104;28;36970;-54
2022/06/14 03:00:42;;;;;;;;;;;12.10;99.90;;;;;;5084220;27;36644;-55
2022/06/14 03:03:12;;;;;;;;;;;12.10;99.90;;;;;;5084072;27;36929;-55
2022/06/14 03:05:43;;;;;;;;;;;12.10;99.90;;;;;;5082574;28;37786;-54
2022/06/14 03:08:12;;;;;;;;;;;12.10;99.90;;;;;;5084740;27;35955;-55
2022/06/14 03:10:40;;;;;;;;;;;12.20;99.90;;;;;;5084115;27;35131;-55
2022/06/14 03:13:12;;;;;;;;;;;12.10;99.90;;;;;;5084960;27;36478;-54
2022/06/14 03:15:43;;;;;;;;;;;12.00;99.90;;;;;;5082647;27;36656;-55
2022/06/14 03:18:13;;;;;;;;;;;12.10;99.90;;;;;;5083712;28;37034;-53
2022/06/14 03:20:47;;;;;;;;;;;12.00;99.90;;;;;;5083971;27;36546;-55
2022/06/14 03:23:20;;;;;;;;;;;12.00;99.90;;;;;;5084366;27;37919;-55
2022/06/14 03:25:50;;;;;;;;;;;12.00;99.90;;;;;;5084723;27;37273;-55
2022/06/14 03:28:20;;;;;;;;;;;12.00;99.90;;;;;;5084448;27;37873;-55
2022/06/14 03:30:52;;;;;;;;;;;12.00;99.90;;;;;;5084050;28;37012;-55
2022/06/14 03:33:22;;;;;;;;;;;12.00;99.90;;;;;;5086550;27;36592;-55
2022/06/14 03:35:51;;;;;;;;;;;11.90;99.90;;;;;;5085240;27;38294;-53
2022/06/14 03:38:20;;;;;;;;;;;11.90;99.90;;;;;;5084834;27;38442;-55
2022/06/14 03:40:48;;;;;;;;;;;11.90;99.90;;;;;;5084596;27;36109;-55
2022/06/14 03:43:15;;;;;;;;;;;11.90;99.90;;;;;;5084068;27;37848;-54
2022/06/14 03:45:45;;;;;;;;;;;11.90;99.90;;;;;;5083695;27;38726;-52
2022/06/14 03:48:13;;;;;;;;;;;11.90;99.90;;;;;;5084065;27;36390;-55
2022/06/14 03:50:45;;;;;;;;;;;11.90;99.90;;;;;;5084652;27;37503;-54
2022/06/14 03:53:23;;;;;;;;;;;11.90;99.90;;;;;;5082820;27;37629;-55
2022/06/14 03:56:03;;;;;;;;;;;12.00;99.90;;;;;;5082831;28;40181;-55
2022/06/14 03:58:43;;;;;;;;;;;12.00;99.90;;;;;;5081452;27;37265;-55
2022/06/14 04:01:13;;;;;;;;;;;12.00;99.90;;;;;;5084463;27;36544;-55
2022/06/14 04:03:47;;;;;;;;;;;12.00;99.90;;;;;;5085566;27;37660;-54
2022/06/14 04:06:17;;;;;;;;;;;12.00;99.90;;;;;;5088393;27;39317;-54
2022/06/14 04:08:50;;;;;;;;;;;12.00;99.90;;;;;;5087820;27;37717;-55
2022/06/14 04:11:22;;;;;;;;;;;12.00;99.90;;;;;;5087205;27;38177;-55
2022/06/14 04:13:52;;;;;;;;;;;12.10;99.90;;;;;;5086626;27;37697;-54
2022/06/14 04:16:25;;;;;;;;;;;12.10;99.90;;;;;;5087827;28;38434;-55
2022/06/14 04:18:58;;;;;;;;;;;12.10;99.90;;;;;;5087815;27;37032;-55
2022/06/14 04:21:37;;;;;;;;;;;12.20;99.90;;;;;;5085943;27;37324;-55
2022/06/14 04:24:17;;;;;;;;;;;12.20;99.90;;;;;;5087138;27;37461;-55
2022/06/14 04:26:46;;;;;;;;;;;12.30;99.90;;;;;;5085699;27;38047;-56
2022/06/14 04:29:22;;;;;;;;;;;12.50;99.90;;;;;;5086838;27;37144;-55
2022/06/14 04:31:51;;;;;;;;;;;12.60;99.90;;;;;;5084920;27;36994;-54
2022/06/14 04:34:22;;;;;;;;;;;12.70;99.90;;;;;;5086354;27;39318;-54
2022/06/14 04:36:54;;;;;;;;;;;12.90;99.90;;;;;;5087122;27;37925;-55
2022/06/14 04:39:25;;;;;;;;;;;13.00;99.90;;;;;;5086089;28;37785;-55
2022/06/14 04:41:55;;;;;;;;;;;13.10;99.90;;;;;;5086703;27;36660;-54
2022/06/14 04:44:27;;;;;;;;;;;13.30;99.90;;;;;;5087557;27;38511;-54
2022/06/14 04:46:56;;;;;;;;;;;13.40;99.90;;;;;;5086979;27;36874;-55
2022/06/14 04:49:27;;;;;;;;;;;13.50;99.90;;;;;;5088267;27;37789;-55
2022/06/14 04:51:56;;;;;;;;;;;13.60;99.90;;;;;;5085880;27;35994;-55
2022/06/14 04:54:25;;;;;;;;;;;13.60;99.90;;;;;;5086241;27;38481;-55
2022/06/14 04:56:56;;;;;;;;;;;13.70;99.90;;;;;;5087303;27;38099;-55
2022/06/14 04:59:27;;;;;;;;;;;13.70;99.90;;;;;;5085321;27;35595;-55
2022/06/14 05:01:57;;;;;;;;;;;13.70;99.90;;;;;;5085726;27;36272;-55
2022/06/14 05:04:26;;;;;;;;;;;13.60;99.90;;;;;;5087051;28;37176;-55
2022/06/14 05:06:55;;;;;;;;;;;13.70;99.90;;;;;;5085505;27;38829;-54
2022/06/14 05:09:24;;;;;;;;;;;13.80;99.90;;;;;;5086329;27;35956;-54
2022/06/14 05:11:53;;;;;;;;;;;13.80;99.90;;;;;;5086124;27;36949;-55
2022/06/14 05:14:22;;;;;;;;;;;13.80;99.90;;;;;;5085219;27;39005;-55
2022/06/14 05:16:51;;;;;;;;;;;13.80;99.90;;;;;;5084801;27;38213;-55
2022/06/14 05:19:21;;;;;;;;;;;13.80;99.90;;;;;;5085401;27;36596;-55
2022/06/14 05:21:52;;;;;;;;;;;13.80;99.90;;;;;;5084950;27;35081;-54
2022/06/14 05:24:20;;;;;;;;;;;13.90;99.90;;;;;;5085405;27;36452;-55
2022/06/14 05:26:55;;;;;;;;;;;14.00;99.90;;;;;;5086593;27;37858;-55
2022/06/14 05:29:25;;;;;;;;;;;14.10;99.90;;;;;;5083819;27;36769;-54
2022/06/14 05:31:59;;;;;;;;;;;14.20;99.90;;;;;;5085383;27;36750;-55
2022/06/14 05:34:31;;;;;;;;;;;14.30;99.90;;;;;;5086027;27;37528;-54
2022/06/14 05:37:02;;;;;;;;;;;14.30;99.90;;;;;;5087291;27;39221;-55
2022/06/14 05:39:32;;;;;;;;;;;14.30;99.90;;;;;;5086506;27;35903;-54
2022/06/14 05:42:03;;;;;;;;;;;14.40;99.90;;;;;;5086498;27;35832;-55
2022/06/14 05:44:30;;;;;;;;;;;14.40;99.90;;;;;;5083232;28;37820;-54
2022/06/14 05:46:59;;;;;;;;;;;14.40;99.90;;;;;;5085031;27;36622;-55
2022/06/14 05:49:29;;;;;;;;;;;14.40;99.90;;;;;;5085674;28;36890;-55
2022/06/14 05:52:07;;;;;;;;;;;14.40;99.90;;;;;;5085689;27;36322;-55
2022/06/14 05:54:37;;;;;;;;;;;14.40;99.90;;;;;;5084576;28;38405;-55
2022/06/14 05:57:07;;;;;;;;;;;14.40;99.90;;;;;;5084669;27;37887;-55
2022/06/14 05:59:36;;;;;;;;;;;14.40;99.90;;;;;;5083380;27;37876;-55
2022/06/14 06:02:08;;;;;;;;;;;14.50;99.90;;;;;;5085015;27;35169;-54
2022/06/14 06:04:37;;;;;;;;;;;14.60;99.90;;;;;;5083588;27;37974;-54
2022/06/14 06:07:07;;;;;;;;;;;14.70;99.90;;;;;;5083824;27;38850;-55
2022/06/14 06:09:38;;;;;;;;;;;14.90;99.90;;;;;;5083668;27;37761;-54
2022/06/14 06:12:08;;;;;;;;;;;15.00;99.90;;;;;;5085438;28;36795;-55
2022/06/14 06:14:37;;;;;;;;;;;15.10;99.90;;;;;;5083517;27;37043;-55
2022/06/14 06:17:07;;;;;;;;;;;15.20;99.90;;;;;;5081290;27;38145;-55
2022/06/14 06:19:37;;;;;;;;;;;15.40;99.90;;;;;;5084198;28;37127;-55
2022/06/14 06:22:08;;;;;;;;;;;15.50;99.90;;;;;;5084814;27;36343;-55
2022/06/14 06:24:38;;;;;;;;;;;15.70;99.90;;;;;;5084963;27;37891;-55
2022/06/14 06:27:08;;;;;;;;;;;15.70;99.90;;;;;;5086407;27;38930;-55
2022/06/14 06:29:38;;;;;;;;;;;15.90;99.90;;;;;;5084101;28;37484;-54
2022/06/14 06:32:06;;;;;;;;;;;16.00;99.90;;;;;;5085054;27;36783;-55
2022/06/14 06:34:34;;;;;;;;;;;16.10;99.90;;;;;;5085730;27;38408;-54
2022/06/14 06:37:06;;;;;;;;;;;16.10;99.90;;;;;;5085859;27;37945;-56
2022/06/14 06:39:36;;;;;;;;;;;16.20;99.90;;;;;;5085600;27;38254;-56
2022/06/14 06:42:09;;;;;;;;;;;16.40;99.90;;;;;;5087015;27;36372;-55
2022/06/14 06:44:39;;;;;;;;;;;16.40;99.90;;;;;;5085409;27;38822;-56
2022/06/14 06:47:12;;;;;;;;;;;16.50;99.90;;;;;;5085495;27;38618;-55
2022/06/14 06:49:47;;;;;;;;;;;16.60;99.90;;;;;;5086584;27;38044;-54
2022/06/14 06:52:16;;;;;;;;;;;16.60;99.90;;;;;;5085157;28;36100;-54
2022/06/14 06:54:45;;;;;;;;;;;16.80;99.90;;;;;;5085757;27;38685;-55
2022/06/14 06:57:20;;;;;;;;;;;16.80;99.20;;;;;;5085384;28;37960;-54
2022/06/14 06:59:48;;;;;;;;;;;16.90;99.70;;;;;;5084552;28;36768;-56
2022/06/14 07:02:20;;;;;;;;;;;17.00;99.30;;;;;;5084841;27;37828;-56
2022/06/14 07:05:05;;;;;;;;;;;17.10;98.90;;;;;;5084594;28;37719;-55
2022/06/14 07:07:37;;;;;;;;;;;17.10;99.20;;;;;;5082662;27;38109;-56
2022/06/14 07:10:07;;;;;;;;;;;17.20;98.60;;;;;;5083770;27;38462;-55
2022/06/14 07:12:38;;;;;;;;;;;17.20;97.40;;;;;;5083918;27;35211;-54
2022/06/14 07:15:10;;;;;;;;;;;17.20;97.20;;;;;;5084488;27;37051;-56
2022/06/14 07:17:40;;;;;;;;;;;17.20;97.00;;;;;;5084474;27;39046;-55
2022/06/14 07:20:12;;;;;;;;;;;17.20;96.70;;;;;;5084583;27;37948;-55
2022/06/14 07:22:42;;;;;;;;;;;17.20;96.70;;;;;;5084425;28;37121;-55
2022/06/14 07:25:13;;;;;;;;;;;17.20;97.20;;;;;;5082707;27;37636;-54
2022/06/14 07:27:43;;;;;;;;;;;17.20;97.10;;;;;;5083888;27;38542;-55
2022/06/14 07:30:12;;;;;;;;;;;17.20;97.10;;;;;;5082909;27;37279;-56
2022/06/14 07:32:42;;;;;;;;;;;17.20;97.60;;;;;;5084100;27;40360;-56
2022/06/14 07:35:09;;;;;;;;;;;17.30;96.80;;;;;;5084401;28;37397;-55
2022/06/14 07:37:40;;;;;;;;;;;17.20;97.20;;;;;;5083592;27;37979;-55
2022/06/14 07:40:12;;;;;;;;;;;17.20;96.40;;;;;;5086347;27;36903;-56
2022/06/14 07:42:41;;;;;;;;;;;17.20;96.40;;;;;;5088317;27;37235;-55
2022/06/14 07:45:13;;;;;;;;;;;17.30;95.70;;;;;;5087880;28;39008;-55
2022/06/14 07:47:44;;;;;;;;;;;17.30;95.60;;;;;;5087902;27;37516;-56
2022/06/14 07:50:14;;;;;;;;;;;17.30;94.80;;;;;;5087653;28;36873;-55
2022/06/14 07:52:42;;;;;;;;;;;17.40;94.70;;;;;;5087403;27;37104;-55
2022/06/14 07:55:12;;;;;;;;;;;17.60;95.20;;;;;;5087348;27;38326;-55
2022/06/14 07:57:42;;;;;;;;;;;17.70;94.80;;;;;;5086934;27;37475;-55
2022/06/14 08:03:02;;;;;;;;;;;17.90;93.70;;;;;;5085489;28;38186;-57
2022/06/14 08:05:31;;;;;;;;;;;18.00;92.90;;;;;;5085185;27;38882;-56
2022/06/14 08:08:03;;;;;;;;;;;18.10;92.70;;;;;;5084218;28;38361;-55
2022/06/14 08:10:32;;;;;;;;;;;18.20;92.80;;;;;;5084798;27;38729;-56
2022/06/14 08:13:02;;;;;;;;;;;18.40;93.10;;;;;;5084979;27;37656;-56
2022/06/14 08:15:33;;;;;;;;;;;18.50;93.50;;;;;;5086714;27;39022;-56
2022/06/14 08:18:02;;;;;;;;;;;18.40;91.40;;;;;;5086461;27;38231;-56
2022/06/14 08:20:33;;;;;;;;;;;18.20;91.90;;;;;;5084924;27;36969;-56
2022/06/14 08:23:05;;;;;;;;;;;18.00;92.00;;;;;;5084453;27;37259;-56
2022/06/14 08:25:34;;;;;;;;;;;17.80;91.90;;;;;;5081982;27;41096;-56
2022/06/14 08:28:06;;;;;;;;;;;17.80;93.30;;;;;;5083442;28;38340;-56
2022/06/14 08:30:36;;;;;;;;;;;18.00;95.00;;;;;;5082963;27;37660;-56
2022/06/14 08:33:05;;;;;;;;;;;18.30;93.00;;;;;;5083582;27;36433;-56
2022/06/14 08:35:35;;;;;;;;;;;18.50;91.70;;;;;;5083762;27;37115;-56
2022/06/14 08:38:05;;;;;;;;;;;18.60;92.50;;;;;;5083189;27;37924;-56
2022/06/14 08:40:37;;;;;;;;;;;18.90;93.50;;;;;;5083944;27;37582;-56
2022/06/14 08:43:08;;;;;;;;;;;19.10;93.20;;;;;;5082341;27;35331;-56
2022/06/14 08:45:39;;;;;;;;;;;19.20;91.80;;;;;;5081172;27;37050;-56
2022/06/14 08:48:07;;;;;;;;;;;19.00;91.70;;;;;;5081852;27;38333;-56
2022/06/14 08:50:45;;;;;;;;;;;18.80;91.80;;;;;;5083418;27;38319;-56
2022/06/14 08:53:30;;;;;;;;;;;18.60;92.10;;;;;;5083324;27;37112;-55
2022/06/14 08:56:03;;;;;;;;;;;18.40;93.30;;;;;;5084193;27;39234;-56
2022/06/14 08:58:42;;;;;;;;;;;18.60;93.80;;;;;;5084562;27;38592;-56
2022/06/14 09:01:17;;;;;;;;;;;18.90;94.70;;;;;;5084231;27;35896;-56
2022/06/14 09:03:56;;;;;;;;;;;19.10;95.10;;;;;;5086303;27;40213;-56
2022/06/14 09:06:42;;;;;;;;;;;19.40;93.70;;;;;;5086936;27;39335;-55
2022/06/14 09:09:23;;;;;;;;;;;19.50;91.90;;;;;;5084859;27;38921;-56
2022/06/14 09:12:07;;;;;;;;;;;19.70;91.30;;;;;;5083885;27;37095;-56
2022/06/14 09:14:47;;;;;;;;;;;19.80;90.70;;;;;;5084812;27;36332;-56
2022/06/14 09:17:29;;;;;;;;;;;19.90;91.10;;;;;;5085161;27;38470;-56
2022/06/14 09:20:02;;;;;;;;;;;20.00;91.00;;;;;;5080004;27;36498;-56
2022/06/14 09:22:35;;;;;;;;;;;20.00;86.60;;;;;;5083400;27;37871;-56
2022/06/14 09:25:08;;;;;;;;;;;20.10;89.00;;;;;;5082344;27;35974;-56
2022/06/14 09:27:54;;;;;;;;;;;20.10;89.40;;;;;;5081908;27;38286;-56
2022/06/14 09:30:34;;;;;;;;;;;20.20;88.90;;;;;;5081372;27;37860;-55
2022/06/14 09:33:14;;;;;;;;;;;20.10;88.60;;;;;;5080778;27;39414;-55
2022/06/14 09:36:08;;;;;;;;;;;20.30;90.20;;;;;;5081576;27;37346;-56
2022/06/14 09:38:50;;;;;;;;;;;20.30;83.00;;;;;;5082510;27;38691;-56
2022/06/14 09:41:22;;;;;;;;;;;20.20;80.20;;;;;;5059064;27;41102;-55
2022/06/14 09:44:10;;;;;;;;;;;20.00;78.90;;;;;;5085427;27;37567;-56
2022/06/14 09:46:44;;;;;;;;;;;19.80;82.90;;;;;;5085497;27;36439;-56
2022/06/14 09:49:21;;;;;;;;;;;19.70;90.10;;;;;;5084513;27;35979;-56
2022/06/14 09:52:08;;;;;;;;;;;19.60;84.00;;;;;;5084762;27;37859;-56
2022/06/14 09:54:53;;;;;;;;;;;19.50;83.40;;;;;;5084738;27;37139;-56
2022/06/14 09:57:31;;;;;;;;;;;19.30;85.70;;;;;;5085660;27;36895;-56
2022/06/14 10:00:13;;;;;;;;;;;19.10;86.90;;;;;;5084233;27;37794;-56
2022/06/14 10:03:09;;;;;;;;;;;19.00;90.30;;;;;;5083839;27;30883;-56
2022/06/14 10:05:43;;;;;;;;;;;18.80;90.90;;;;;;5055713;27;37046;-55
2022/06/14 10:08:29;;;;;;;;;;;18.80;91.60;;;;;;5081686;27;36333;-56
2022/06/14 10:11:08;;;;;;;;;;;18.90;93.80;;;;;;5081735;27;37724;-56
2022/06/14 10:13:50;;;;;;;;;;;19.20;91.80;;;;;;5081343;27;37396;-55
2022/06/14 10:16:22;;;;;;;;;;;19.30;89.60;;;;;;5082292;27;37187;-56
2022/06/14 10:19:13;;;;;;;;;;;19.20;89.40;;;;;;5081890;27;37038;-56
2022/06/14 10:21:41;;;;;;;;;;;19.10;87.30;;;;;;5068920;28;39658;-56
2022/06/14 10:24:17;;;;;;;;;;;18.90;88.10;;;;;;5081729;27;41386;-55
2022/06/14 10:29:53;;;;;;;;;;;18.50;90.80;;;;;;5081316;28;38633;-55
2022/06/14 10:32:37;;;;;;;;;;;18.30;91.00;;;;;;5080595;28;37687;-54
2022/06/14 10:35:08;;;;;;;;;;;18.20;91.90;;;;;;5070806;27;38729;-56
2022/06/14 10:37:53;;;;;;;;;;;18.10;92.80;;;;;;5083782;27;35976;-56
2022/06/14 10:40:34;;;;;;;;;;;17.90;93.10;;;;;;5083849;27;37150;-56
2022/06/14 10:43:05;;;;;;;;;;;17.80;93.40;;;;;;5082735;27;38550;-56
2022/06/14 10:45:34;;;;;;;;;;;17.70;93.90;;;;;;5083765;28;37738;-55
2022/06/14 10:48:28;;;;;;;;;;;17.60;94.30;;;;;;5083260;28;37595;-55
2022/06/14 10:51:05;;;;;;;;;;;17.60;94.60;;;;;;5055127;27;37207;-56
2022/06/14 10:53:40;;;;;;;;;;;17.60;95.10;;;;;;5082870;28;38641;-55
2022/06/14 10:56:16;;;;;;;;;;;17.50;95.60;;;;;;5082530;27;39102;-55
2022/06/14 10:58:58;;;;;;;;;;;17.50;95.20;;;;;;5082779;27;37717;-55
2022/06/14 11:01:34;;;;;;;;;;;17.50;95.90;;;;;;5046324;27;36481;-55
2022/06/14 11:04:05;;;;;;;;;;;17.40;95.90;;;;;;5083698;27;39621;-55
2022/06/14 11:06:59;;;;;;;;;;;17.40;95.70;;;;;;5082392;28;36616;-55
2022/06/14 11:09:34;;;;;;;;;;;17.40;96.20;;;;;;5083287;27;37209;-55
2022/06/14 11:12:08;;;;;;;;;;;17.40;96.00;;;;;;5082666;27;37781;-54
2022/06/14 11:14:38;;;;;;;;;;;17.40;95.70;;;;;;5084423;27;37226;-55
2022/06/14 11:17:12;;;;;;;;;;;17.40;95.40;;;;;;5086940;27;38766;-55
2022/06/14 11:19:47;;;;;;;;;;;17.50;95.70;;;;;;5086394;27;39414;-56
2022/06/14 11:22:18;;;;;;;;;;;17.50;96.20;;;;;;5086881;28;37766;-55
2022/06/14 11:24:48;;;;;;;;;;;17.60;95.90;;;;;;5086620;27;38474;-55
2022/06/14 11:27:19;;;;;;;;;;;17.60;95.20;;;;;;5085820;27;37478;-54
2022/06/14 11:29:50;;;;;;;;;;;17.60;95.40;;;;;;5086185;27;36492;-55
2022/06/14 11:32:21;;;;;;;;;;;17.60;96.20;;;;;;5086617;27;37109;-55
2022/06/14 11:34:57;;;;;;;;;;;17.70;95.50;;;;;;5086136;27;38510;-55
2022/06/14 11:37:29;;;;;;;;;;;17.70;94.90;;;;;;5085468;27;36623;-55
2022/06/14 11:39:58;;;;;;;;;;;17.70;95.50;;;;;;5085531;27;37031;-55
2022/06/14 11:42:28;;;;;;;;;;;17.70;95.80;;;;;;5084478;27;36689;-55
2022/06/14 11:45:07;;;;;;;;;;;17.70;95.20;;;;;;5083968;27;40382;-56
2022/06/14 11:47:37;;;;;;;;;;;17.70;94.90;;;;;;5085936;27;37553;-55
2022/06/14 11:50:09;;;;;;;;;;;17.90;95.60;;;;;;5086031;27;37481;-56
2022/06/14 11:52:42;;;;;;;;;;;18.10;94.50;;;;;;5085660;27;37155;-55
2022/06/14 11:55:17;;;;;;;;;;;18.20;94.60;;;;;;5084120;27;38112;-55
2022/06/14 11:57:50;;;;;;;;;;;18.30;93.10;;;;;;5086237;27;38146;-55
2022/06/14 12:00:23;;;;;;;;;;;18.20;93.80;;;;;;5085403;27;37033;-56
2022/06/14 12:02:56;;;;;;;;;;;18.20;93.80;;;;;;5086038;27;36171;-55
2022/06/14 12:05:29;;;;;;;;;;;18.20;93.70;;;;;;5085042;28;36465;-55
2022/06/14 12:08:01;;;;;;;;;;;18.20;93.90;;;;;;5085309;27;39026;-56
2022/06/14 12:10:35;;;;;;;;;;;18.20;94.00;;;;;;5085548;27;38823;-55
2022/06/14 12:13:11;;;;;;;;;;;18.20;93.10;;;;;;5085803;27;36078;-55
2022/06/14 12:15:42;;;;;;;;;;;18.10;93.30;;;;;;5085599;27;36511;-56
2022/06/14 12:18:12;;;;;;;;;;;18.00;93.90;;;;;;5084878;27;38577;-55
2022/06/14 12:20:41;;;;;;;;;;;18.00;94.30;;;;;;5084910;28;36965;-55
2022/06/14 12:23:11;;;;;;;;;;;18.00;93.80;;;;;;5085103;27;36548;-55
2022/06/14 12:28:33;;;;;;;;;;;18.10;95.70;;;;;;5085711;28;40800;-55
2022/06/14 12:31:03;;;;;;;;;;;18.10;95.30;;;;;;5083558;27;37271;-55
2022/06/14 12:33:33;;;;;;;;;;;18.10;95.40;;;;;;5084590;27;35924;-55
2022/06/14 12:36:05;;;;;;;;;;;18.10;94.80;;;;;;5084956;27;39473;-56
2022/06/14 12:38:36;;;;;;;;;;;18.20;94.50;;;;;;5083386;28;37821;-54
2022/06/14 12:41:08;;;;;;;;;;;18.30;95.80;;;;;;5084991;27;36886;-56
2022/06/14 12:43:43;;;;;;;;;;;18.40;93.90;;;;;;5084550;27;36699;-55
2022/06/14 12:46:11;;;;;;;;;;;18.40;94.10;;;;;;5085586;27;37510;-56
2022/06/14 12:48:42;;;;;;;;;;;18.50;94.20;;;;;;5084615;27;39119;-56
2022/06/14 12:51:11;;;;;;;;;;;18.40;91.90;;;;;;5084328;28;36003;-55
2022/06/14 12:53:41;;;;;;;;;;;18.40;91.70;;;;;;5084287;27;37113;-55
2022/06/14 12:56:12;;;;;;;;;;;18.40;92.60;;;;;;5083500;27;38755;-55
2022/06/14 12:58:45;;;;;;;;;;;18.40;93.40;;;;;;5085324;27;38737;-55
2022/06/14 13:01:15;;;;;;;;;;;18.40;92.80;;;;;;5085105;28;37269;-55
2022/06/14 13:03:46;;;;;;;;;;;18.50;94.50;;;;;;5085520;27;36784;-55
2022/06/14 13:06:33;;;;;;;;;;;18.50;94.50;;;;;;5085061;27;37570;-55
2022/06/14 13:09:03;;;;;;;;;;;18.50;94.00;;;;;;5084123;27;37484;-55
2022/06/14 13:11:34;;;;;;;;;;;18.50;94.20;;;;;;5084496;27;37161;-54
2022/06/14 13:14:10;;;;;;;;;;;18.50;94.50;;;;;;5084794;27;36169;-56
2022/06/14 13:16:45;;;;;;;;;;;18.60;93.90;;;;;;5084472;27;38282;-56
2022/06/14 13:19:18;;;;;;;;;;;18.60;94.40;;;;;;5083403;27;38199;-55
2022/06/14 13:21:54;;;;;;;;;;;18.50;94.80;;;;;;5083532;27;36546;-54
2022/06/14 13:24:24;;;;;;;;;;;18.50;94.70;;;;;;5083236;27;36692;-56
2022/06/14 13:26:57;;;;;;;;;;;18.40;93.60;;;;;;5078125;27;37398;-54
2022/06/14 13:29:38;;;;;;;;;;;18.40;94.20;;;;;;5081393;27;37844;-55
2022/06/14 13:32:23;;;;;;;;;;;18.30;93.40;;;;;;5081554;27;36958;-55
2022/06/14 13:34:53;;;;;;;;;;;18.20;92.90;;;;;;5080892;28;37125;-54
2022/06/14 13:37:27;;;;;;;;;;;18.10;93.50;;;;;;5082913;27;37710;-56
2022/06/14 13:39:55;;;;;;;;;;;18.10;93.30;;;;;;5082115;28;38539;-55
2022/06/14 13:42:25;;;;;;;;;;;18.00;92.80;;;;;;5083413;27;38983;-55
2022/06/14 13:44:57;;;;;;;;;;;18.00;94.10;;;;;;5081779;27;37054;-55
2022/06/14 13:47:28;;;;;;;;;;;18.00;93.90;;;;;;5083201;27;36437;-55
2022/06/14 13:49:59;;;;;;;;;;;18.00;93.90;;;;;;5082094;27;39355;-54
2022/06/14 13:52:30;;;;;;;;;;;18.10;94.00;;;;;;5082341;27;37130;-55
2022/06/14 13:54:59;;;;;;;;;;;18.10;93.30;;;;;;5082172;28;36157;-55
2022/06/14 13:57:31;;;;;;;;;;;18.10;94.00;;;;;;5082564;27;37799;-54
2022/06/14 14:00:04;;;;;;;;;;;18.20;93.60;;;;;;5081863;27;38126;-55
2022/06/14 14:02:34;;;;;;;;;;;18.20;93.90;;;;;;5081823;28;37821;-54
2022/06/14 14:05:06;;;;;;;;;;;18.30;93.80;;;;;;5081900;27;38601;-56
2022/06/14 14:07:36;;;;;;;;;;;18.30;93.10;;;;;;5082094;27;40882;-55
2022/06/14 14:10:24;;;;;;;;;;;18.30;94.30;;;;;;5081542;27;39271;-55
2022/06/14 14:12:55;;;;;;;;;;;18.40;95.10;;;;;;5078866;28;37197;-56
2022/06/14 14:15:29;;;;;;;;;;;18.50;95.50;;;;;;5083353;27;37190;-55
2022/06/14 14:18:00;;;;;;;;;;;18.70;95.40;;;;;;5081660;27;37849;-55
2022/06/14 14:20:34;;;;;;;;;;;18.80;94.00;;;;;;5083303;28;36777;-55
2022/06/14 14:23:04;;;;;;;;;;;18.80;93.70;;;;;;5082105;27;37082;-55
2022/06/14 14:25:32;;;;;;;;;;;18.80;93.20;;;;;;5081340;27;36520;-55
2022/06/14 14:28:02;;;;;;;;;;;18.80;94.00;;;;;;5081611;27;37966;-56
2022/06/14 14:30:53;;;;;;;;;;;18.80;93.70;;;;;;5082425;27;38531;-54
2022/06/14 14:33:24;;;;;;;;;;;18.80;93.20;;;;;;5082078;27;38154;-55
2022/06/14 14:35:53;;;;;;;;;;;18.80;92.70;;;;;;5082246;27;35215;-56
2022/06/14 14:38:22;;;;;;;;;;;18.70;92.20;;;;;;5081939;27;39233;-56
2022/06/14 14:43:35;;;;;;;;;;;18.60;91.90;;;;;;5079992;27;37573;-55
2022/06/14 14:46:09;;;;;;;;;;;18.60;92.60;;;;;;5081774;27;36515;-55
2022/06/14 14:48:38;;;;;;;;;;;18.60;93.60;;;;;;5081158;27;37741;-55
2022/06/14 14:51:08;;;;;;;;;;;18.60;93.40;;;;;;5081201;28;37674;-56
2022/06/14 14:53:38;;;;;;;;;;;18.50;93.30;;;;;;5081952;28;37242;-56
2022/06/14 14:56:08;;;;;;;;;;;18.60;92.90;;;;;;5082305;27;37964;-56
2022/06/14 14:58:40;;;;;;;;;;;18.50;93.00;;;;;;5083483;27;37758;-55
2022/06/14 15:07:03;;;;;;;;;;;18.60;93.70;;;;;;5082522;28;37439;-55